createdAt,value
2022-12-03T00:00:00.354Z,4.2
2022-12-03T00:05:00.344Z,4.2
2022-12-03T00:10:00.345Z,4.2
2022-12-03T00:15:00.482Z,4.3
2022-12-03T00:20:00.328Z,4.5
2022-12-03T00:25:00.316Z,4.6
2022-12-03T00:30:00.363Z,4.6
2022-12-03T00:35:00.432Z,4.7
2022-12-03T00:40:00.380Z,4.7
2022-12-03T00:45:00.393Z,4.7
2022-12-03T00:50:00.318Z,4.7
2022-12-03T00:55:00.391Z,4.7
2022-12-03T01:00:00.421Z,4.7
2022-12-03T01:05:00.452Z,4.7
2022-12-03T01:10:00.338Z,4.7
2022-12-03T01:15:00.380Z,4.6
2022-12-03T01:20:00.377Z,4.6
2022-12-03T01:25:00.355Z,4.6
2022-12-03T01:30:00.358Z,4.6
2022-12-03T01:35:00.390Z,4.6
2022-12-03T01:40:00.398Z,4.6
2022-12-03T01:45:00.365Z,4.6
2022-12-03T01:50:00.449Z,4.6
2022-12-03T01:55:00.376Z,4.5
2022-12-03T02:00:00.360Z,4.4
2022-12-03T02:05:00.368Z,4.4
2022-12-03T02:10:00.374Z,4.3
2022-12-03T02:15:00.406Z,4.3
2022-12-03T02:20:00.384Z,4.3
2022-12-03T02:25:00.350Z,4.2
2022-12-03T02:30:00.375Z,4.4
2022-12-03T02:35:00.355Z,4.4
2022-12-03T02:40:00.370Z,4.3
2022-12-03T02:45:04.774Z,4.3
2022-12-03T02:50:00.415Z,4.4
2022-12-03T02:55:00.363Z,4.4
2022-12-03T03:00:00.317Z,4.4
2022-12-03T03:05:00.374Z,4.4
2022-12-03T03:10:00.380Z,4.4
2022-12-03T03:15:00.350Z,4.3
2022-12-03T03:20:00.308Z,4.4
2022-12-03T03:25:00.415Z,4.5
2022-12-03T03:30:00.302Z,4.4
2022-12-03T03:35:00.379Z,4.4
2022-12-03T03:40:00.416Z,4.4
2022-12-03T03:45:00.363Z,4.5
2022-12-03T03:50:00.348Z,4.5
2022-12-03T03:55:00.374Z,4.6
2022-12-03T04:00:00.355Z,4.7
2022-12-03T04:05:00.378Z,4.7
2022-12-03T04:10:00.386Z,4.7
2022-12-03T04:15:00.362Z,4.7
2022-12-03T04:20:00.366Z,4.7
2022-12-03T04:25:00.359Z,4.7
2022-12-03T04:30:00.349Z,4.7
2022-12-03T04:35:00.395Z,4.7
2022-12-03T04:40:00.356Z,4.7
2022-12-03T04:45:00.364Z,4.7
2022-12-03T04:50:00.363Z,4.7
2022-12-03T04:55:00.366Z,4.7
2022-12-03T05:00:00.222Z,4.7
2022-12-03T05:05:00.364Z,4.7
2022-12-03T05:10:00.398Z,4.7
2022-12-03T05:15:00.138Z,4.7
2022-12-03T05:20:00.396Z,4.7
2022-12-03T05:25:00.387Z,4.7
2022-12-03T05:30:00.357Z,4.7
2022-12-03T05:35:00.355Z,4.7
2022-12-03T05:40:00.515Z,4.7
2022-12-03T05:45:00.331Z,4.7
2022-12-03T05:50:00.292Z,4.6
2022-12-03T05:55:00.343Z,4.6
2022-12-03T06:00:00.314Z,4.6
2022-12-03T06:05:00.390Z,4.6
2022-12-03T06:10:00.351Z,4.6
2022-12-03T06:15:00.345Z,4.6
2022-12-03T06:20:00.320Z,4.6
2022-12-03T06:25:05.011Z,4.6
2022-12-03T06:30:00.355Z,4.6
2022-12-03T06:35:00.295Z,4.6
2022-12-03T06:40:00.358Z,4.6
2022-12-03T06:45:00.380Z,4.6
2022-12-03T06:50:00.381Z,4.6
2022-12-03T06:55:00.343Z,4.6
2022-12-03T07:00:00.345Z,4.6
2022-12-03T07:05:00.381Z,4.6
2022-12-03T07:10:00.363Z,4.6
2022-12-03T07:15:00.350Z,4.6
2022-12-03T07:20:00.154Z,4.6
2022-12-03T07:25:00.357Z,4.6
2022-12-03T07:30:00.347Z,4.6
2022-12-03T07:35:00.402Z,4.6
2022-12-03T07:40:00.159Z,4.6
2022-12-03T07:45:00.457Z,4.6
2022-12-03T07:50:00.404Z,4.6
2022-12-03T07:55:00.339Z,4.6
2022-12-03T08:00:00.639Z,4.7
2022-12-03T08:05:00.623Z,4.7
2022-12-03T08:10:00.680Z,4.7
2022-12-03T08:15:00.363Z,4.6
2022-12-03T08:20:00.371Z,4.6
2022-12-03T08:25:00.303Z,4.6
2022-12-03T08:30:00.326Z,4.6
2022-12-03T08:35:00.367Z,4.6
2022-12-03T08:40:00.365Z,4.6
2022-12-03T08:45:00.366Z,4.7
2022-12-03T08:50:00.391Z,4.7
2022-12-03T08:55:00.377Z,4.7
2022-12-03T09:00:00.363Z,4.7
2022-12-03T09:05:00.371Z,4.7
2022-12-03T09:10:00.368Z,4.7
2022-12-03T09:15:00.384Z,4.7
2022-12-03T09:20:00.280Z,4.7
2022-12-03T09:25:00.417Z,4.7
2022-12-03T09:30:00.565Z,4.7
2022-12-03T09:35:00.367Z,4.7
2022-12-03T09:40:00.350Z,4.7
2022-12-03T09:50:00.377Z,4.7
2022-12-03T09:55:00.365Z,4.9
2022-12-03T10:00:00.366Z,4.9
2022-12-03T10:05:00.427Z,4.9
2022-12-03T10:10:00.334Z,4.8
2022-12-03T10:15:00.314Z,4.8
2022-12-03T10:20:00.348Z,4.7
2022-12-03T10:25:00.327Z,4.8
2022-12-03T10:30:00.347Z,4.8
2022-12-03T10:35:00.349Z,4.8
2022-12-03T10:40:00.403Z,4.8
2022-12-03T10:45:00.340Z,4.8
2022-12-03T10:50:00.394Z,4.7
2022-12-03T10:55:00.360Z,4.7
2022-12-03T11:00:00.316Z,4.8
2022-12-03T11:05:00.349Z,4.8
2022-12-03T11:10:00.348Z,4.7
2022-12-03T11:15:00.376Z,4.7
2022-12-03T11:20:00.341Z,4.7
2022-12-03T11:25:00.361Z,4.6
2022-12-03T11:30:00.457Z,4.6
2022-12-03T11:35:00.389Z,4.6
2022-12-03T11:40:00.353Z,4.6
2022-12-03T11:45:00.346Z,4.7
2022-12-03T11:50:00.399Z,4.7
2022-12-03T11:55:00.412Z,4.7
2022-12-03T12:00:00.359Z,4.7
2022-12-03T12:05:00.367Z,4.7
2022-12-03T12:10:00.405Z,4.7
2022-12-03T12:15:00.370Z,4.7
2022-12-03T12:20:00.606Z,4.7
2022-12-03T12:25:00.367Z,4.7
2022-12-03T12:30:00.353Z,4.7
2022-12-03T12:35:00.321Z,4.7
2022-12-03T12:40:00.390Z,4.7
2022-12-03T12:45:00.373Z,4.7
2022-12-03T12:50:00.297Z,4.7
2022-12-03T12:55:04.574Z,4.7
2022-12-03T13:00:00.366Z,4.7
2022-12-03T13:05:00.362Z,4.7
2022-12-03T13:10:00.340Z,4.7
2022-12-03T13:15:00.395Z,4.7
2022-12-03T13:20:07.001Z,4.7
2022-12-03T13:25:00.305Z,4.7
2022-12-03T13:30:00.363Z,4.7
2022-12-03T13:35:00.350Z,4.7
2022-12-03T13:40:00.375Z,4.7
2022-12-03T13:45:00.369Z,4.7
2022-12-03T13:50:00.477Z,4.7
2022-12-03T13:55:00.467Z,4.7
2022-12-03T14:00:00.377Z,4.7
2022-12-03T14:05:00.915Z,4.7
2022-12-03T14:10:00.375Z,4.7
2022-12-03T14:15:00.288Z,4.7
2022-12-03T14:20:00.343Z,4.7
2022-12-03T14:25:00.395Z,4.7
2022-12-03T14:30:00.392Z,4.8
2022-12-03T14:35:01.893Z,4.8
2022-12-03T14:40:00.355Z,4.7
2022-12-03T14:45:00.404Z,4.7
2022-12-03T14:50:00.370Z,4.7
2022-12-03T14:55:00.393Z,4.7
2022-12-03T15:00:00.400Z,4.7
2022-12-03T15:05:00.384Z,4.7
2022-12-03T15:10:00.370Z,4.7
2022-12-03T15:15:00.342Z,4.8
2022-12-03T15:20:00.431Z,4.8
2022-12-03T15:25:00.458Z,4.8
2022-12-03T15:30:00.325Z,4.8
2022-12-03T15:35:00.297Z,4.8
2022-12-03T15:40:00.363Z,4.8
2022-12-03T15:45:00.403Z,4.8
2022-12-03T15:50:00.414Z,4.8
2022-12-03T15:55:00.343Z,4.8
2022-12-03T16:00:00.388Z,4.8
2022-12-03T16:05:00.342Z,4.8
2022-12-03T16:10:00.413Z,4.8
2022-12-03T16:15:00.394Z,4.8
2022-12-03T16:20:00.364Z,4.8
2022-12-03T16:25:00.426Z,4.8
2022-12-03T16:30:00.373Z,4.8
2022-12-03T16:35:00.418Z,4.8
2022-12-03T16:40:00.353Z,4.8
2022-12-03T16:45:00.365Z,4.8
2022-12-03T16:50:00.349Z,4.8
2022-12-03T16:55:00.344Z,4.8
2022-12-03T17:00:00.488Z,4.8
2022-12-03T17:05:00.345Z,4.8
2022-12-03T17:10:00.363Z,4.8
2022-12-03T17:15:00.354Z,4.8
2022-12-03T17:20:00.443Z,4.8
2022-12-03T17:25:00.337Z,4.8
2022-12-03T17:30:00.496Z,4.8
2022-12-03T17:35:00.394Z,4.8
2022-12-03T17:40:00.336Z,4.7
2022-12-03T17:45:00.310Z,4.8
2022-12-03T17:50:00.359Z,4.7
2022-12-03T17:55:13.117Z,4.7
2022-12-03T18:00:00.358Z,4.7
2022-12-03T18:05:00.414Z,4.7
2022-12-03T18:10:00.364Z,4.7
2022-12-03T18:15:00.355Z,4.7
2022-12-03T18:20:00.463Z,4.8
2022-12-03T18:25:00.369Z,4.8
2022-12-03T18:30:00.370Z,4.8
2022-12-03T18:35:00.394Z,4.8
2022-12-03T18:40:00.395Z,4.8
2022-12-03T18:45:00.376Z,4.8
2022-12-03T18:50:00.414Z,4.8
2022-12-03T18:55:00.387Z,4.8
2022-12-03T19:00:00.378Z,4.8
2022-12-03T19:05:00.572Z,4.8
2022-12-03T19:10:00.321Z,4.7
2022-12-03T19:15:00.353Z,4.7
2022-12-03T19:20:00.350Z,4.7
2022-12-03T19:25:01.018Z,4.7
2022-12-03T19:30:00.445Z,4.7
2022-12-03T19:35:00.402Z,4.7
2022-12-03T19:40:00.381Z,4.7
2022-12-03T19:45:00.408Z,4.7
2022-12-03T19:50:00.400Z,4.7
2022-12-03T19:55:00.375Z,4.7
2022-12-03T20:00:00.285Z,4.7
2022-12-03T20:05:00.366Z,4.7
2022-12-03T20:10:00.428Z,4.7
2022-12-03T20:15:00.376Z,4.7
2022-12-03T20:20:00.351Z,4.7
2022-12-03T20:25:00.304Z,4.7
2022-12-03T20:30:00.377Z,4.7
2022-12-03T20:35:00.183Z,4.7
2022-12-03T20:40:00.409Z,4.7
2022-12-03T20:45:00.304Z,4.7
2022-12-03T20:50:00.413Z,4.7
2022-12-03T20:55:00.413Z,4.7
2022-12-03T21:00:00.360Z,4.7
2022-12-03T21:05:00.377Z,4.7
2022-12-03T21:10:00.354Z,4.7
2022-12-03T21:15:00.364Z,4.7
2022-12-03T21:20:00.406Z,4.8
2022-12-03T21:25:00.379Z,4.8
2022-12-03T21:30:00.423Z,4.8
2022-12-03T21:35:00.361Z,4.8
2022-12-03T21:40:00.357Z,4.8
2022-12-03T21:45:00.331Z,4.8
2022-12-03T21:50:00.384Z,4.8
2022-12-03T21:55:00.357Z,4.8
2022-12-03T22:00:00.336Z,4.8
2022-12-03T22:05:00.337Z,4.8
2022-12-03T22:10:00.406Z,4.8
2022-12-03T22:15:00.379Z,4.8
2022-12-03T22:20:00.380Z,4.8
2022-12-03T22:25:00.406Z,4.8
2022-12-03T22:30:00.367Z,4.8
2022-12-03T22:35:00.410Z,4.8
2022-12-03T22:40:00.312Z,4.8
2022-12-03T22:45:00.349Z,4.8
2022-12-03T22:50:00.393Z,4.8
2022-12-03T23:00:00.340Z,4.8
2022-12-03T23:05:00.606Z,4.8
2022-12-03T23:10:00.310Z,4.8
2022-12-03T23:15:00.644Z,4.8
2022-12-03T23:20:00.596Z,4.8
2022-12-03T23:25:00.327Z,4.8
2022-12-03T23:30:00.359Z,4.8
2022-12-03T23:35:00.335Z,4.8
2022-12-03T23:40:00.368Z,4.8
2022-12-03T23:45:00.351Z,4.8
2022-12-03T23:50:00.375Z,4.8
2022-12-03T23:55:00.351Z,4.8
